Flight Track Log - Related Links

Times and Time Zones

All times are in EDT time to prevent confusion due to time zone crossing. See the FDX1254 flight status page for this flight to view local times or setup timezone preferences in your user account.

Time Position Orientation Groundspeed Altitude Reporting Facility
EDT Latitude Longitude Course Direction KTS MPH feet Rate Location/Type
Thu 11:12:44 PM 40.8120 -85.3400 220° Southwest 331 381 10,300  Level FlightAware ADS-B
Thu 11:13:24 PM 40.7740 -85.4010 231° Southwest 338 389 10,400 75 Climbing FlightAware ADS-B
Thu 11:14:04 PM 40.7400 -85.4560 231° Southwest 338 389 10,400 4,094 Level FlightAware ADS-B
Thu 11:14:49 PM 40.6610 -85.5460 221° Southwest 387 445 16,200 5,294 Climbing FlightAware ADS-B
Thu 11:15:29 PM 40.6050 -85.6020 217° Southwest 397 457 17,900 2,541 Climbing FlightAware ADS-B
Thu 11:16:14 PM 40.5350 -85.6700 216° Southwest 409 471 19,800 2,471 Climbing FlightAware ADS-B
Thu 11:16:54 PM 40.4730 -85.7320 217° Southwest 418 481 21,400 2,259 Climbing FlightAware ADS-B
Thu 11:17:39 PM 40.4030 -85.7990 216° Southwest 427 491 23,000 1,976 Climbing FlightAware ADS-B
Thu 11:18:19 PM 40.3420 -85.8590 217° Southwest 431 496 24,200 1,800 Climbing FlightAware ADS-B
Thu 11:18:59 PM 40.2750 -85.9240 217° Southwest 444 511 25,400 1,835 Climbing FlightAware ADS-B
Thu 11:19:44 PM 40.2000 -85.9970 217° Southwest 450 518 26,800 1,835 Climbing FlightAware ADS-B
Thu 11:20:24 PM 40.1310 -86.0630 216° Southwest 455 524 28,000 1,694 Climbing FlightAware ADS-B
Thu 11:21:09 PM 40.0550 -86.1370 217° Southwest 458 527 29,200 1,875 Climbing FlightAware ADS-B
Thu 11:21:44 PM 40.0000 -86.1890 216° Southwest 449 517 30,500 1,950 Climbing FlightAware ADS-B
Thu 11:22:29 PM 39.9200 -86.2660 216° Southwest 449 517 31,800 1,835 Climbing FlightAware ADS-B
Thu 11:23:09 PM 39.8580 -86.3250 216° Southwest 442 509 33,100 2,047 Climbing FlightAware ADS-B
Thu 11:23:54 PM 39.7800 -86.3940 214° Southwest 438 504 34,700 1,694 Climbing FlightAware ADS-B
Thu 11:24:34 PM 39.7100 -86.4480 211° Southwest 441 507 35,500 1,271 Climbing FlightAware ADS-B
Thu 11:25:19 PM 39.6290 -86.5080 210° Southwest 440 506 36,500 1,341 Climbing FlightAware ADS-B
Thu 11:25:59 PM 39.5570 -86.5620 210° Southwest 436 502 37,400 1,125 Climbing FlightAware ADS-B
Thu 11:26:39 PM 39.4890 -86.6140 211° Southwest 437 503 38,000 424 Climbing FlightAware ADS-B
Thu 11:27:24 PM 39.4050 -86.6700 207° Southwest 454 522 38,000  Level FlightAware ADS-B
Thu 11:28:19 PM 39.2850 -86.6730 181° South 502 578 38,000  Level FlightAware ADS-B
Thu 11:29:14 PM 39.1660 -86.6710 179° South 473 544 38,000  Level FlightAware ADS-B
Thu 11:29:59 PM 39.0780 -86.7200 203° Southwest 436 502 38,000  Level FlightAware ADS-B
Thu 11:30:39 PM 39.0120 -86.7820 216° Southwest 436 502 38,000  Level FlightAware ADS-B
Thu 11:31:24 PM 38.9390 -86.8500 216° Southwest 438 504 38,000  Level FlightAware ADS-B
Thu 11:32:04 PM 38.8710 -86.9140 216° Southwest 439 505 38,000  Level FlightAware ADS-B
Thu 11:32:44 PM 38.8050 -86.9720 214° Southwest 439 505 38,000  Level FlightAware ADS-B
Thu 11:33:29 PM 38.7300 -87.0400 215° Southwest 438 504 38,000  Level FlightAware ADS-B
Thu 11:34:09 PM 38.6660 -87.1000 216° Southwest 434 499 38,000  Level FlightAware ADS-B
Thu 11:34:54 PM 38.5910 -87.1670 215° Southwest 432 497 38,000  Level FlightAware ADS-B
Thu 11:35:34 PM 38.5260 -87.2270 216° Southwest 430 495 38,000  Level FlightAware ADS-B
Thu 11:36:19 PM 38.4560 -87.2900 215° Southwest 428 493 38,000  Level FlightAware ADS-B
Thu 11:36:59 PM 38.3890 -87.3500 215° Southwest 426 490 38,000  Level FlightAware ADS-B
Thu 11:37:44 PM 38.3180 -87.4140 215° Southwest 423 487 38,000  Level FlightAware ADS-B
Thu 11:38:24 PM 38.2520 -87.4740 216° Southwest 422 486 38,000  Level FlightAware ADS-B
Thu 11:39:04 PM 38.1870 -87.5310 215° Southwest 421 484 38,000  Level FlightAware ADS-B
Thu 11:39:44 PM 38.1270 -87.5850 215° Southwest 419 482 38,000  Level FlightAware ADS-B
Thu 11:40:29 PM 38.0550 -87.6500 215° Southwest 419 482 38,000  Level FlightAware ADS-B
Thu 11:41:14 PM 37.9850 -87.7110 214° Southwest 419 482 38,000  Level FlightAware ADS-B
Thu 11:41:49 PM 37.9290 -87.7650 217° Southwest 409 471 38,000  Level FlightAware ADS-B
Thu 11:42:34 PM 37.8730 -87.8410 227° Southwest 399 459 38,000  Level FlightAware ADS-B
Thu 11:43:19 PM 37.8170 -87.9230 229° Southwest 401 461 38,000  Level FlightAware ADS-B
Thu 11:43:59 PM 37.7680 -87.9930 228° Southwest 400 460 38,000  Level FlightAware ADS-B
Thu 11:44:39 PM 37.7200 -88.0630 229° Southwest 398 458 38,000  Level FlightAware ADS-B
Thu 11:45:24 PM 37.6640 -88.1440 229° Southwest 396 456 38,000  Level FlightAware ADS-B
Thu 11:46:04 PM 37.6170 -88.2110 228° Southwest 396 456 38,000  Level FlightAware ADS-B
Thu 11:46:49 PM 37.5630 -88.2890 229° Southwest 394 453 38,000  Level FlightAware ADS-B
Thu 11:47:29 PM 37.5150 -88.3580 229° Southwest 393 452 38,000  Level FlightAware ADS-B
Thu 11:48:09 PM 37.4660 -88.4270 228° Southwest 393 452 38,000  Level FlightAware ADS-B
Thu 11:48:54 PM 37.4130 -88.5030 229° Southwest 394 453 38,000  Level FlightAware ADS-B
Thu 11:49:34 PM 37.3660 -88.5700 229° Southwest 393 452 38,000  Level FlightAware ADS-B
Thu 11:50:14 PM 37.3170 -88.6400 229° Southwest 392 451 38,000  Level FlightAware ADS-B
Thu 11:50:59 PM 37.2620 -88.7180 228° Southwest 389 448 38,000  Level FlightAware ADS-B
Thu 11:51:34 PM 37.2230 -88.7720 228° Southwest 388 447 38,000  Level FlightAware ADS-B
Thu 11:52:24 PM 37.1650 -88.8520 228° Southwest 389 448 38,000 -200 Level FlightAware ADS-B
Thu 11:53:04 PM 37.1160 -88.9210 228° Southwest 389 448 37,700 -225 Descending FlightAware ADS-B
Thu 11:53:44 PM 37.0750 -88.9780 228° Southwest 389 448 37,700  Level FlightAware ADS-B
Thu 11:54:24 PM 37.0340 -89.0350 228° Southwest 389 448 37,700 -3,240 Level FlightAware ADS-B
Thu 11:54:34 PM 36.9810 -89.0610 201° Southwest 449 517 35,000 -2,945 Descending FlightAware ADS-B
Thu 11:55:19 PM 36.8960 -89.1090 204° Southwest 446 513 35,000  Level FlightAware ADS-B
Thu 11:56:04 PM 36.8220 -89.1540 206° Southwest 446 513 35,000  Level FlightAware ADS-B
Thu 11:56:44 PM 36.7590 -89.1920 206° Southwest 446 513 35,000  Level FlightAware ADS-B
Thu 11:57:24 PM 36.6960 -89.2310 206° Southwest 446 513 35,000  Level FlightAware ADS-B
Thu 11:58:14 PM 36.6170 -89.2790 206° Southwest 446 513 35,000  Level FlightAware ADS-B
Thu 11:58:54 PM 36.5540 -89.3170 206° Southwest 446 513 35,000  Level FlightAware ADS-B
Thu 11:59:34 PM 36.4910 -89.3550 206° Southwest 446 513 35,000  Level FlightAware ADS-B
Fri 12:00:14 AM 36.4280 -89.3930 206° Southwest 446 513 35,000  Level FlightAware ADS-B
Fri 12:00:54 AM 36.3650 -89.4320 206° Southwest 446 513 35,000  Level FlightAware ADS-B
Fri 12:01:44 AM 36.2860 -89.4790 206° Southwest 446 513 35,000  Level FlightAware ADS-B
Fri 12:02:24 AM 36.2230 -89.5170 206° Southwest 446 513 35,000  Level FlightAware ADS-B
Fri 12:03:04 AM 36.1600 -89.5560 207° Southwest 446 513 35,000  Level FlightAware ADS-B
Fri 12:03:44 AM 36.0970 -89.5940 206° Southwest 446 513 35,000  Level FlightAware ADS-B
Fri 12:04:24 AM 36.0340 -89.6320 206° Southwest 446 513 35,000  Level FlightAware ADS-B
Fri 12:05:04 AM 35.9710 -89.6700 206° Southwest 446 513 35,000 -23,053 Level FlightAware ADS-B
Fri 12:05:21 AM 35.9278 -89.7750 206° Southwest 370 426 13,100 -18,701 Descending Memphis Center
Fri 12:06:21 AM 35.8319 -89.7964 190° South 364 419 11,000 -1,450 Descending Memphis Center
Fri 12:07:21 AM 35.7467 -89.8147 190° South 345 397 10,200 -800 Descending Memphis Center
Fri 12:08:21 AM 35.6717 -89.8306 190° South 309 356 9,400 -1,000 Descending Memphis Center
Fri 12:09:21 AM 35.5986 -89.8056 164° South 266 306 8,200 -850 Descending Memphis Center
Fri 12:10:21 AM 35.5294 -89.7753 160° South 266 306 7,700 -550 Descending Memphis Center
Fri 12:11:21 AM 35.4583 -89.7428 160° South 272 313 7,100 -550 Descending Memphis Center
Fri 12:12:21 AM 35.3958 -89.7153 160° South 264 304 6,600 -500 Descending Memphis Center
Fri 12:13:21 AM 35.3289 -89.6825 158° South 264 304 6,100 -550 Descending Memphis Center
Fri 12:14:21 AM 35.2639 -89.6475 156° South 269 310 5,500 -650 Descending Memphis Center
Fri 12:15:21 AM 35.2075 -89.6100 151° Southeast 244 281 4,800 -1,000 Descending Memphis Center
Fri 12:16:21 AM 35.1469 -89.6081 178° South 224 258 3,500 -900 Descending Memphis Center
Fri 12:17:21 AM 35.0886 -89.6261 194° South 198 228 3,000 -250 Descending Memphis Center
Fri 12:18:21 AM 35.0639 -89.6872 244° Southwest 188 216 3,000  Level Memphis Center
Fri 12:19:21 AM 35.0517 -89.7483 256° West 188 216 3,000 -100 Level Memphis Center
Fri 12:20:21 AM 35.0561 -89.8117 275° West 188 216 2,800 -694 Descending Memphis Center
Fri 12:21:48 AM 35.0500 -89.9000 265° West 173 199 1,300 -898 Descending KMEM
Fri 12:22:48 AM 35.0500 -89.9500 270° West 132 152 600 -700 Descending KMEM
Fri 12:24:00 AM 35.0333 -89.9667 223° Southwest  Level FlightAware Approximate
Fri 12:31:00 AM 35.0424 -89.9767 223° Southwest  Level Estimated
Fri 12:32:00 AM 35.0424 -89.9767 223° Southwest  Level Estimated
Fri 12:33:00 AM 35.0424 -89.9767 223° Southwest  Level Estimated
Fri 12:34:00 AM 35.0424 -89.9767 223° Southwest  Level Estimated
Fri 12:35:00 AM 35.0424 -89.9767 223° Southwest  Level Estimated
Fri 12:36:00 AM 35.0424 -89.9767 223° Southwest  Level Estimated

Login

Don't have an account? Register now (free) for customized features, flight alerts, and more!